sensor_id;sensor_type;location;lat;lon;timestamp;P1;durP1;ratioP1;P2;durP2;ratioP2
54388;SDS011;40975;50.390;8.640;2023-08-20T00:00:50;6.07;;;4.00;;
54388;SDS011;40975;50.390;8.640;2023-08-20T00:03:17;4.65;;;3.92;;
54388;SDS011;40975;50.390;8.640;2023-08-20T00:05:42;4.85;;;4.03;;
54388;SDS011;40975;50.390;8.640;2023-08-20T00:08:08;5.53;;;4.15;;
54388;SDS011;40975;50.390;8.640;2023-08-20T00:10:33;6.93;;;4.47;;
54388;SDS011;40975;50.390;8.640;2023-08-20T00:12:58;5.90;;;3.80;;
54388;SDS011;40975;50.390;8.640;2023-08-20T00:15:24;5.45;;;3.53;;
54388;SDS011;40975;50.390;8.640;2023-08-20T00:17:51;5.68;;;3.53;;
54388;SDS011;40975;50.390;8.640;2023-08-20T00:20:17;5.35;;;3.38;;
54388;SDS011;40975;50.390;8.640;2023-08-20T00:22:43;12.40;;;5.25;;
54388;SDS011;40975;50.390;8.640;2023-08-20T00:25:10;4.88;;;3.83;;
54388;SDS011;40975;50.390;8.640;2023-08-20T00:27:38;5.07;;;4.20;;
54388;SDS011;40975;50.390;8.640;2023-08-20T00:30:04;7.22;;;3.70;;
54388;SDS011;40975;50.390;8.640;2023-08-20T00:32:30;6.20;;;4.47;;
54388;SDS011;40975;50.390;8.640;2023-08-20T00:34:55;5.40;;;3.85;;
54388;SDS011;40975;50.390;8.640;2023-08-20T00:37:21;7.72;;;3.90;;
54388;SDS011;40975;50.390;8.640;2023-08-20T00:39:46;6.70;;;4.22;;
54388;SDS011;40975;50.390;8.640;2023-08-20T00:42:13;8.80;;;3.88;;
54388;SDS011;40975;50.390;8.640;2023-08-20T00:44:41;7.88;;;4.18;;
54388;SDS011;40975;50.390;8.640;2023-08-20T00:47:09;5.90;;;3.88;;
54388;SDS011;40975;50.390;8.640;2023-08-20T00:49:35;5.60;;;4.30;;
54388;SDS011;40975;50.390;8.640;2023-08-20T00:52:00;6.20;;;4.80;;
54388;SDS011;40975;50.390;8.640;2023-08-20T00:54:28;5.63;;;4.28;;
54388;SDS011;40975;50.390;8.640;2023-08-20T00:56:54;10.25;;;4.47;;
54388;SDS011;40975;50.390;8.640;2023-08-20T00:59:20;6.28;;;4.80;;
54388;SDS011;40975;50.390;8.640;2023-08-20T01:01:45;4.70;;;4.20;;
54388;SDS011;40975;50.390;8.640;2023-08-20T01:04:11;5.75;;;4.15;;
54388;SDS011;40975;50.390;8.640;2023-08-20T01:09:29;9.27;;;4.70;;
54388;SDS011;40975;50.390;8.640;2023-08-20T01:12:08;11.48;;;5.35;;
54388;SDS011;40975;50.390;8.640;2023-08-20T01:14:35;6.25;;;4.43;;
54388;SDS011;40975;50.390;8.640;2023-08-20T01:17:00;9.63;;;4.95;;
54388;SDS011;40975;50.390;8.640;2023-08-20T01:19:25;5.40;;;4.05;;
54388;SDS011;40975;50.390;8.640;2023-08-20T01:27:52;9.55;;;4.82;;
54388;SDS011;40975;50.390;8.640;2023-08-20T01:30:27;8.88;;;5.47;;
54388;SDS011;40975;50.390;8.640;2023-08-20T01:32:53;8.38;;;4.45;;
54388;SDS011;40975;50.390;8.640;2023-08-20T01:35:20;8.60;;;5.35;;
54388;SDS011;40975;50.390;8.640;2023-08-20T01:38:01;11.40;;;4.70;;
54388;SDS011;40975;50.390;8.640;2023-08-20T01:40:26;12.18;;;6.20;;
54388;SDS011;40975;50.390;8.640;2023-08-20T01:42:52;6.38;;;5.03;;
54388;SDS011;40975;50.390;8.640;2023-08-20T01:45:17;7.07;;;4.30;;
54388;SDS011;40975;50.390;8.640;2023-08-20T01:47:43;9.10;;;5.40;;
54388;SDS011;40975;50.390;8.640;2023-08-20T01:50:09;6.60;;;4.65;;
54388;SDS011;40975;50.390;8.640;2023-08-20T01:52:34;6.60;;;4.45;;
54388;SDS011;40975;50.390;8.640;2023-08-20T01:55:00;10.73;;;5.57;;
54388;SDS011;40975;50.390;8.640;2023-08-20T01:57:25;7.55;;;5.20;;
54388;SDS011;40975;50.390;8.640;2023-08-20T01:59:51;7.57;;;5.88;;
54388;SDS011;40975;50.390;8.640;2023-08-20T02:02:16;7.60;;;5.60;;
54388;SDS011;40975;50.390;8.640;2023-08-20T02:04:42;8.32;;;5.72;;
54388;SDS011;40975;50.390;8.640;2023-08-20T02:07:07;7.10;;;5.25;;
54388;SDS011;40975;50.390;8.640;2023-08-20T02:09:32;8.85;;;5.38;;
54388;SDS011;40975;50.390;8.640;2023-08-20T02:11:58;6.88;;;5.50;;
54388;SDS011;40975;50.390;8.640;2023-08-20T02:14:23;7.07;;;5.47;;
54388;SDS011;40975;50.390;8.640;2023-08-20T02:16:48;9.75;;;5.93;;
54388;SDS011;40975;50.390;8.640;2023-08-20T02:19:14;11.98;;;6.10;;
54388;SDS011;40975;50.390;8.640;2023-08-20T02:21:39;9.45;;;6.03;;
54388;SDS011;40975;50.390;8.640;2023-08-20T02:24:05;7.70;;;5.38;;
54388;SDS011;40975;50.390;8.640;2023-08-20T02:26:31;9.32;;;5.93;;
54388;SDS011;40975;50.390;8.640;2023-08-20T02:28:57;8.52;;;5.78;;
54388;SDS011;40975;50.390;8.640;2023-08-20T02:31:22;10.75;;;5.93;;
54388;SDS011;40975;50.390;8.640;2023-08-20T02:33:47;10.25;;;6.13;;
54388;SDS011;40975;50.390;8.640;2023-08-20T02:36:12;9.57;;;7.03;;
54388;SDS011;40975;50.390;8.640;2023-08-20T02:38:38;9.60;;;7.22;;
54388;SDS011;40975;50.390;8.640;2023-08-20T02:41:03;7.00;;;6.07;;
54388;SDS011;40975;50.390;8.640;2023-08-20T02:43:29;9.77;;;6.78;;
54388;SDS011;40975;50.390;8.640;2023-08-20T02:45:55;7.55;;;5.88;;
54388;SDS011;40975;50.390;8.640;2023-08-20T02:48:20;8.32;;;6.15;;
54388;SDS011;40975;50.390;8.640;2023-08-20T02:50:45;7.68;;;5.78;;
54388;SDS011;40975;50.390;8.640;2023-08-20T02:53:11;8.90;;;6.57;;
54388;SDS011;40975;50.390;8.640;2023-08-20T02:55:36;7.85;;;6.18;;
54388;SDS011;40975;50.390;8.640;2023-08-20T02:58:02;8.05;;;6.00;;
54388;SDS011;40975;50.390;8.640;2023-08-20T03:00:32;9.32;;;6.40;;
54388;SDS011;40975;50.390;8.640;2023-08-20T03:02:58;7.15;;;6.22;;
54388;SDS011;40975;50.390;8.640;2023-08-20T03:05:23;9.32;;;5.70;;
54388;SDS011;40975;50.390;8.640;2023-08-20T03:07:48;11.25;;;6.65;;
54388;SDS011;40975;50.390;8.640;2023-08-20T03:10:14;9.27;;;6.95;;
54388;SDS011;40975;50.390;8.640;2023-08-20T03:12:39;9.40;;;6.53;;
54388;SDS011;40975;50.390;8.640;2023-08-20T03:15:05;9.30;;;6.43;;
54388;SDS011;40975;50.390;8.640;2023-08-20T03:17:31;8.10;;;6.35;;
54388;SDS011;40975;50.390;8.640;2023-08-20T03:19:57;9.48;;;6.95;;
54388;SDS011;40975;50.390;8.640;2023-08-20T03:22:25;8.93;;;6.50;;
54388;SDS011;40975;50.390;8.640;2023-08-20T03:24:51;9.15;;;6.50;;
54388;SDS011;40975;50.390;8.640;2023-08-20T03:27:17;7.90;;;7.10;;
54388;SDS011;40975;50.390;8.640;2023-08-20T03:29:43;8.52;;;6.80;;
54388;SDS011;40975;50.390;8.640;2023-08-20T03:32:10;8.57;;;6.57;;
54388;SDS011;40975;50.390;8.640;2023-08-20T03:34:36;9.40;;;6.40;;
54388;SDS011;40975;50.390;8.640;2023-08-20T03:37:01;11.40;;;7.22;;
54388;SDS011;40975;50.390;8.640;2023-08-20T03:39:27;10.20;;;7.43;;
54388;SDS011;40975;50.390;8.640;2023-08-20T03:41:53;11.40;;;7.00;;
54388;SDS011;40975;50.390;8.640;2023-08-20T03:44:18;9.85;;;6.85;;
54388;SDS011;40975;50.390;8.640;2023-08-20T03:46:44;9.43;;;7.05;;
54388;SDS011;40975;50.390;8.640;2023-08-20T03:49:09;11.23;;;6.72;;
54388;SDS011;40975;50.390;8.640;2023-08-20T03:51:35;9.27;;;6.68;;
54388;SDS011;40975;50.390;8.640;2023-08-20T03:54:01;9.15;;;6.72;;
54388;SDS011;40975;50.390;8.640;2023-08-20T03:56:36;9.70;;;7.18;;
54388;SDS011;40975;50.390;8.640;2023-08-20T03:59:01;8.40;;;6.63;;
54388;SDS011;40975;50.390;8.640;2023-08-20T04:01:28;8.85;;;7.20;;
54388;SDS011;40975;50.390;8.640;2023-08-20T04:03:54;10.00;;;7.20;;
54388;SDS011;40975;50.390;8.640;2023-08-20T04:06:19;8.45;;;6.53;;
54388;SDS011;40975;50.390;8.640;2023-08-20T04:08:44;9.45;;;7.30;;
54388;SDS011;40975;50.390;8.640;2023-08-20T04:11:10;11.00;;;7.47;;
54388;SDS011;40975;50.390;8.640;2023-08-20T04:13:38;10.07;;;7.45;;
54388;SDS011;40975;50.390;8.640;2023-08-20T04:16:04;10.07;;;7.78;;
54388;SDS011;40975;50.390;8.640;2023-08-20T04:18:30;13.35;;;8.52;;
54388;SDS011;40975;50.390;8.640;2023-08-20T04:20:56;12.88;;;8.80;;
54388;SDS011;40975;50.390;8.640;2023-08-20T04:23:23;10.60;;;8.10;;
54388;SDS011;40975;50.390;8.640;2023-08-20T04:25:48;10.00;;;7.82;;
54388;SDS011;40975;50.390;8.640;2023-08-20T04:28:15;12.30;;;8.70;;
54388;SDS011;40975;50.390;8.640;2023-08-20T04:30:40;12.25;;;8.07;;
54388;SDS011;40975;50.390;8.640;2023-08-20T04:33:06;13.10;;;8.43;;
54388;SDS011;40975;50.390;8.640;2023-08-20T04:35:32;10.93;;;8.38;;
54388;SDS011;40975;50.390;8.640;2023-08-20T04:37:57;14.80;;;9.02;;
54388;SDS011;40975;50.390;8.640;2023-08-20T04:40:23;13.20;;;8.32;;
54388;SDS011;40975;50.390;8.640;2023-08-20T04:42:51;12.48;;;8.43;;
54388;SDS011;40975;50.390;8.640;2023-08-20T04:45:16;12.80;;;8.80;;
54388;SDS011;40975;50.390;8.640;2023-08-20T04:47:46;13.68;;;9.30;;
54388;SDS011;40975;50.390;8.640;2023-08-20T04:50:12;11.00;;;8.48;;
54388;SDS011;40975;50.390;8.640;2023-08-20T04:52:38;11.77;;;8.90;;
54388;SDS011;40975;50.390;8.640;2023-08-20T04:55:05;12.30;;;8.07;;
54388;SDS011;40975;50.390;8.640;2023-08-20T04:57:32;11.75;;;7.82;;
54388;SDS011;40975;50.390;8.640;2023-08-20T04:59:58;11.38;;;8.65;;
54388;SDS011;40975;50.390;8.640;2023-08-20T05:02:55;13.05;;;8.57;;
54388;SDS011;40975;50.390;8.640;2023-08-20T05:05:21;16.15;;;9.73;;
54388;SDS011;40975;50.390;8.640;2023-08-20T05:07:48;11.40;;;9.15;;
54388;SDS011;40975;50.390;8.640;2023-08-20T05:10:13;12.68;;;9.85;;
54388;SDS011;40975;50.390;8.640;2023-08-20T05:12:39;12.90;;;9.07;;
54388;SDS011;40975;50.390;8.640;2023-08-20T05:15:04;13.68;;;9.23;;
54388;SDS011;40975;50.390;8.640;2023-08-20T05:17:30;15.68;;;10.35;;
54388;SDS011;40975;50.390;8.640;2023-08-20T05:19:56;13.73;;;9.63;;
54388;SDS011;40975;50.390;8.640;2023-08-20T05:22:22;12.98;;;8.43;;
54388;SDS011;40975;50.390;8.640;2023-08-20T05:24:48;13.90;;;9.18;;
54388;SDS011;40975;50.390;8.640;2023-08-20T05:27:14;14.63;;;10.10;;
54388;SDS011;40975;50.390;8.640;2023-08-20T05:29:44;11.90;;;8.77;;
54388;SDS011;40975;50.390;8.640;2023-08-20T05:32:09;11.38;;;9.02;;
54388;SDS011;40975;50.390;8.640;2023-08-20T05:34:35;12.15;;;8.82;;
54388;SDS011;40975;50.390;8.640;2023-08-20T05:37:01;13.50;;;9.48;;
54388;SDS011;40975;50.390;8.640;2023-08-20T05:39:29;11.07;;;8.30;;
54388;SDS011;40975;50.390;8.640;2023-08-20T05:41:55;9.90;;;7.55;;
54388;SDS011;40975;50.390;8.640;2023-08-20T05:44:22;13.40;;;8.75;;
54388;SDS011;40975;50.390;8.640;2023-08-20T05:46:48;11.65;;;8.57;;
54388;SDS011;40975;50.390;8.640;2023-08-20T05:49:14;9.98;;;7.68;;
54388;SDS011;40975;50.390;8.640;2023-08-20T05:51:42;11.98;;;8.15;;
54388;SDS011;40975;50.390;8.640;2023-08-20T05:54:09;9.65;;;7.20;;
54388;SDS011;40975;50.390;8.640;2023-08-20T05:56:34;11.25;;;7.88;;
54388;SDS011;40975;50.390;8.640;2023-08-20T05:59:00;9.43;;;8.32;;
54388;SDS011;40975;50.390;8.640;2023-08-20T06:01:25;11.32;;;8.27;;
54388;SDS011;40975;50.390;8.640;2023-08-20T06:03:50;12.63;;;8.90;;
54388;SDS011;40975;50.390;8.640;2023-08-20T06:06:16;11.48;;;7.97;;
54388;SDS011;40975;50.390;8.640;2023-08-20T06:08:41;10.40;;;8.27;;
54388;SDS011;40975;50.390;8.640;2023-08-20T06:11:06;10.82;;;7.70;;
54388;SDS011;40975;50.390;8.640;2023-08-20T06:13:32;10.15;;;8.20;;
54388;SDS011;40975;50.390;8.640;2023-08-20T06:15:57;10.52;;;7.65;;
54388;SDS011;40975;50.390;8.640;2023-08-20T06:18:22;9.10;;;7.03;;
54388;SDS011;40975;50.390;8.640;2023-08-20T06:20:48;10.27;;;7.22;;
54388;SDS011;40975;50.390;8.640;2023-08-20T06:23:13;9.32;;;6.63;;
54388;SDS011;40975;50.390;8.640;2023-08-20T06:25:38;9.38;;;6.43;;
54388;SDS011;40975;50.390;8.640;2023-08-20T06:28:04;8.82;;;6.88;;
54388;SDS011;40975;50.390;8.640;2023-08-20T06:30:29;11.57;;;7.68;;
54388;SDS011;40975;50.390;8.640;2023-08-20T06:32:55;10.98;;;8.30;;
54388;SDS011;40975;50.390;8.640;2023-08-20T06:35:20;9.90;;;7.35;;
54388;SDS011;40975;50.390;8.640;2023-08-20T06:37:46;11.20;;;8.90;;
54388;SDS011;40975;50.390;8.640;2023-08-20T06:40:11;11.90;;;7.93;;
54388;SDS011;40975;50.390;8.640;2023-08-20T06:42:38;12.38;;;8.45;;
54388;SDS011;40975;50.390;8.640;2023-08-20T06:45:04;13.80;;;8.63;;
54388;SDS011;40975;50.390;8.640;2023-08-20T06:47:29;13.55;;;8.85;;
54388;SDS011;40975;50.390;8.640;2023-08-20T06:49:54;11.23;;;8.70;;
54388;SDS011;40975;50.390;8.640;2023-08-20T06:52:20;12.40;;;9.15;;
54388;SDS011;40975;50.390;8.640;2023-08-20T06:54:45;12.40;;;8.50;;
54388;SDS011;40975;50.390;8.640;2023-08-20T06:57:11;12.60;;;8.85;;
54388;SDS011;40975;50.390;8.640;2023-08-20T06:59:36;11.27;;;8.52;;
54388;SDS011;40975;50.390;8.640;2023-08-20T07:02:01;12.10;;;8.95;;
54388;SDS011;40975;50.390;8.640;2023-08-20T07:04:28;12.32;;;8.95;;
54388;SDS011;40975;50.390;8.640;2023-08-20T07:06:54;12.20;;;9.20;;
54388;SDS011;40975;50.390;8.640;2023-08-20T07:09:19;11.73;;;8.35;;
54388;SDS011;40975;50.390;8.640;2023-08-20T07:11:44;13.45;;;9.68;;
54388;SDS011;40975;50.390;8.640;2023-08-20T07:14:10;12.52;;;9.50;;
54388;SDS011;40975;50.390;8.640;2023-08-20T07:16:35;16.90;;;9.70;;
54388;SDS011;40975;50.390;8.640;2023-08-20T07:19:00;15.18;;;9.73;;
54388;SDS011;40975;50.390;8.640;2023-08-20T07:21:25;12.70;;;9.13;;
54388;SDS011;40975;50.390;8.640;2023-08-20T07:23:51;14.50;;;9.50;;
54388;SDS011;40975;50.390;8.640;2023-08-20T07:26:16;13.20;;;10.35;;
54388;SDS011;40975;50.390;8.640;2023-08-20T07:28:42;13.05;;;9.70;;
54388;SDS011;40975;50.390;8.640;2023-08-20T07:31:26;15.13;;;10.43;;
54388;SDS011;40975;50.390;8.640;2023-08-20T07:33:55;14.95;;;10.25;;
54388;SDS011;40975;50.390;8.640;2023-08-20T07:36:22;15.02;;;10.02;;
54388;SDS011;40975;50.390;8.640;2023-08-20T07:38:49;16.40;;;11.73;;
54388;SDS011;40975;50.390;8.640;2023-08-20T07:41:15;15.70;;;11.20;;
54388;SDS011;40975;50.390;8.640;2023-08-20T07:43:40;14.93;;;11.55;;
54388;SDS011;40975;50.390;8.640;2023-08-20T07:46:07;15.02;;;10.90;;
54388;SDS011;40975;50.390;8.640;2023-08-20T07:48:33;17.73;;;11.80;;
54388;SDS011;40975;50.390;8.640;2023-08-20T07:50:59;17.25;;;11.40;;
54388;SDS011;40975;50.390;8.640;2023-08-20T07:53:25;16.92;;;11.35;;
54388;SDS011;40975;50.390;8.640;2023-08-20T07:55:50;16.95;;;12.07;;
54388;SDS011;40975;50.390;8.640;2023-08-20T07:58:15;17.60;;;11.63;;
54388;SDS011;40975;50.390;8.640;2023-08-20T08:00:41;15.32;;;11.50;;
54388;SDS011;40975;50.390;8.640;2023-08-20T08:03:06;20.02;;;11.35;;
54388;SDS011;40975;50.390;8.640;2023-08-20T08:05:31;15.32;;;11.77;;
54388;SDS011;40975;50.390;8.640;2023-08-20T08:07:57;15.48;;;11.23;;
54388;SDS011;40975;50.390;8.640;2023-08-20T08:10:22;14.90;;;11.73;;
54388;SDS011;40975;50.390;8.640;2023-08-20T08:12:48;15.82;;;12.07;;
54388;SDS011;40975;50.390;8.640;2023-08-20T08:15:13;14.70;;;11.23;;
54388;SDS011;40975;50.390;8.640;2023-08-20T08:17:38;13.40;;;10.88;;
54388;SDS011;40975;50.390;8.640;2023-08-20T08:20:04;17.52;;;11.05;;
54388;SDS011;40975;50.390;8.640;2023-08-20T08:22:30;13.55;;;10.60;;
54388;SDS011;40975;50.390;8.640;2023-08-20T08:24:55;13.38;;;10.95;;
54388;SDS011;40975;50.390;8.640;2023-08-20T08:27:20;12.88;;;10.45;;
54388;SDS011;40975;50.390;8.640;2023-08-20T08:29:46;12.00;;;10.18;;
54388;SDS011;40975;50.390;8.640;2023-08-20T08:32:11;13.48;;;10.60;;
54388;SDS011;40975;50.390;8.640;2023-08-20T08:34:36;12.63;;;10.93;;
54388;SDS011;40975;50.390;8.640;2023-08-20T08:37:02;13.23;;;10.10;;
54388;SDS011;40975;50.390;8.640;2023-08-20T08:39:27;15.20;;;10.60;;
54388;SDS011;40975;50.390;8.640;2023-08-20T08:41:54;14.90;;;10.75;;
54388;SDS011;40975;50.390;8.640;2023-08-20T08:44:27;11.50;;;10.23;;
54388;SDS011;40975;50.390;8.640;2023-08-20T08:46:53;13.77;;;9.30;;
54388;SDS011;40975;50.390;8.640;2023-08-20T08:49:18;11.90;;;10.65;;
54388;SDS011;40975;50.390;8.640;2023-08-20T08:51:44;11.95;;;10.65;;
54388;SDS011;40975;50.390;8.640;2023-08-20T08:54:11;12.05;;;10.23;;
54388;SDS011;40975;50.390;8.640;2023-08-20T08:56:38;11.95;;;9.70;;
54388;SDS011;40975;50.390;8.640;2023-08-20T08:59:04;10.98;;;9.88;;
54388;SDS011;40975;50.390;8.640;2023-08-20T09:01:30;10.40;;;9.32;;
54388;SDS011;40975;50.390;8.640;2023-08-20T09:03:55;9.93;;;8.90;;
54388;SDS011;40975;50.390;8.640;2023-08-20T09:06:21;10.93;;;9.07;;
54388;SDS011;40975;50.390;8.640;2023-08-20T09:08:46;10.63;;;9.20;;
54388;SDS011;40975;50.390;8.640;2023-08-20T09:11:12;9.97;;;8.83;;
54388;SDS011;40975;50.390;8.640;2023-08-20T09:13:38;9.57;;;8.75;;
54388;SDS011;40975;50.390;8.640;2023-08-20T09:16:04;9.25;;;8.45;;
54388;SDS011;40975;50.390;8.640;2023-08-20T09:18:31;10.35;;;9.32;;
54388;SDS011;40975;50.390;8.640;2023-08-20T09:20:57;9.45;;;8.55;;
54388;SDS011;40975;50.390;8.640;2023-08-20T09:23:25;8.95;;;8.23;;
54388;SDS011;40975;50.390;8.640;2023-08-20T09:28:18;8.47;;;7.77;;
54388;SDS011;40975;50.390;8.640;2023-08-20T09:30:56;8.93;;;8.02;;
54388;SDS011;40975;50.390;8.640;2023-08-20T09:35:49;8.60;;;7.80;;
54388;SDS011;40975;50.390;8.640;2023-08-20T09:38:15;8.27;;;7.47;;
54388;SDS011;40975;50.390;8.640;2023-08-20T09:40:44;8.02;;;7.28;;
54388;SDS011;40975;50.390;8.640;2023-08-20T09:43:12;7.68;;;7.03;;
54388;SDS011;40975;50.390;8.640;2023-08-20T09:45:40;8.20;;;7.40;;
54388;SDS011;40975;50.390;8.640;2023-08-20T09:48:07;8.48;;;7.60;;
54388;SDS011;40975;50.390;8.640;2023-08-20T09:50:35;8.45;;;7.45;;
54388;SDS011;40975;50.390;8.640;2023-08-20T09:53:06;7.40;;;6.80;;
54388;SDS011;40975;50.390;8.640;2023-08-20T09:55:37;7.65;;;6.95;;
54388;SDS011;40975;50.390;8.640;2023-08-20T09:58:04;8.77;;;7.07;;
54388;SDS011;40975;50.390;8.640;2023-08-20T10:00:30;7.30;;;6.55;;
54388;SDS011;40975;50.390;8.640;2023-08-20T10:02:57;7.63;;;6.80;;
54388;SDS011;40975;50.390;8.640;2023-08-20T10:05:23;8.25;;;7.45;;
54388;SDS011;40975;50.390;8.640;2023-08-20T10:07:49;9.52;;;6.68;;
54388;SDS011;40975;50.390;8.640;2023-08-20T10:10:14;7.40;;;6.68;;
54388;SDS011;40975;50.390;8.640;2023-08-20T10:12:41;9.48;;;6.45;;
54388;SDS011;40975;50.390;8.640;2023-08-20T10:15:09;7.05;;;6.45;;
54388;SDS011;40975;50.390;8.640;2023-08-20T10:17:35;7.32;;;6.60;;
54388;SDS011;40975;50.390;8.640;2023-08-20T10:20:03;6.90;;;6.20;;
54388;SDS011;40975;50.390;8.640;2023-08-20T10:22:42;6.95;;;6.30;;
54388;SDS011;40975;50.390;8.640;2023-08-20T10:25:09;6.70;;;5.95;;
54388;SDS011;40975;50.390;8.640;2023-08-20T10:27:37;6.80;;;6.22;;
54388;SDS011;40975;50.390;8.640;2023-08-20T10:30:11;6.78;;;6.10;;
54388;SDS011;40975;50.390;8.640;2023-08-20T10:32:49;6.68;;;6.00;;
54388;SDS011;40975;50.390;8.640;2023-08-20T10:35:15;6.65;;;6.10;;
54388;SDS011;40975;50.390;8.640;2023-08-20T10:43:27;7.57;;;6.88;;
54388;SDS011;40975;50.390;8.640;2023-08-20T10:46:06;7.20;;;6.15;;
54388;SDS011;40975;50.390;8.640;2023-08-20T10:48:31;5.80;;;5.23;;
54388;SDS011;40975;50.390;8.640;2023-08-20T10:51:05;6.05;;;5.35;;
54388;SDS011;40975;50.390;8.640;2023-08-20T10:53:31;6.10;;;5.50;;
54388;SDS011;40975;50.390;8.640;2023-08-20T10:56:06;6.43;;;5.82;;
54388;SDS011;40975;50.390;8.640;2023-08-20T10:58:32;5.93;;;5.43;;
54388;SDS011;40975;50.390;8.640;2023-08-20T11:01:11;7.78;;;5.95;;
54388;SDS011;40975;50.390;8.640;2023-08-20T11:03:44;5.90;;;5.30;;
54388;SDS011;40975;50.390;8.640;2023-08-20T11:06:10;6.90;;;6.30;;
54388;SDS011;40975;50.390;8.640;2023-08-20T11:08:36;6.82;;;6.15;;
54388;SDS011;40975;50.390;8.640;2023-08-20T11:11:02;6.53;;;5.78;;
54388;SDS011;40975;50.390;8.640;2023-08-20T11:13:28;6.35;;;5.75;;
54388;SDS011;40975;50.390;8.640;2023-08-20T11:15:54;6.43;;;5.82;;
54388;SDS011;40975;50.390;8.640;2023-08-20T11:18:20;6.35;;;5.45;;
54388;SDS011;40975;50.390;8.640;2023-08-20T11:20:45;7.30;;;5.45;;
54388;SDS011;40975;50.390;8.640;2023-08-20T11:23:10;5.93;;;5.43;;
54388;SDS011;40975;50.390;8.640;2023-08-20T11:25:41;5.75;;;5.05;;
54388;SDS011;40975;50.390;8.640;2023-08-20T11:30:32;5.83;;;5.33;;
54388;SDS011;40975;50.390;8.640;2023-08-20T11:32:58;6.10;;;5.40;;
54388;SDS011;40975;50.390;8.640;2023-08-20T11:35:23;6.18;;;5.22;;
54388;SDS011;40975;50.390;8.640;2023-08-20T11:37:49;7.20;;;6.03;;
54388;SDS011;40975;50.390;8.640;2023-08-20T11:40:14;7.07;;;6.22;;
54388;SDS011;40975;50.390;8.640;2023-08-20T11:42:40;6.43;;;5.38;;
54388;SDS011;40975;50.390;8.640;2023-08-20T11:45:05;6.32;;;5.57;;
54388;SDS011;40975;50.390;8.640;2023-08-20T11:47:38;6.15;;;5.47;;
54388;SDS011;40975;50.390;8.640;2023-08-20T11:50:05;7.60;;;6.50;;
54388;SDS011;40975;50.390;8.640;2023-08-20T11:52:34;7.95;;;6.28;;
54388;SDS011;40975;50.390;8.640;2023-08-20T11:55:01;6.68;;;5.78;;
54388;SDS011;40975;50.390;8.640;2023-08-20T11:57:30;6.03;;;5.38;;
54388;SDS011;40975;50.390;8.640;2023-08-20T11:59:59;8.35;;;5.82;;
54388;SDS011;40975;50.390;8.640;2023-08-20T12:02:42;7.97;;;6.05;;
54388;SDS011;40975;50.390;8.640;2023-08-20T12:05:08;5.75;;;5.10;;
54388;SDS011;40975;50.390;8.640;2023-08-20T12:07:33;5.20;;;4.70;;
54388;SDS011;40975;50.390;8.640;2023-08-20T12:09:58;7.30;;;5.47;;
54388;SDS011;40975;50.390;8.640;2023-08-20T12:12:45;5.47;;;4.53;;
54388;SDS011;40975;50.390;8.640;2023-08-20T12:15:10;5.18;;;4.68;;
54388;SDS011;40975;50.390;8.640;2023-08-20T12:17:35;5.80;;;5.13;;
54388;SDS011;40975;50.390;8.640;2023-08-20T12:20:01;5.80;;;5.22;;
54388;SDS011;40975;50.390;8.640;2023-08-20T12:22:31;5.95;;;4.70;;
54388;SDS011;40975;50.390;8.640;2023-08-20T12:24:57;5.97;;;4.75;;
54388;SDS011;40975;50.390;8.640;2023-08-20T12:27:22;6.22;;;5.57;;
54388;SDS011;40975;50.390;8.640;2023-08-20T12:29:47;5.60;;;5.05;;
54388;SDS011;40975;50.390;8.640;2023-08-20T12:32:13;5.70;;;5.10;;
54388;SDS011;40975;50.390;8.640;2023-08-20T12:34:39;6.45;;;5.43;;
54388;SDS011;40975;50.390;8.640;2023-08-20T12:37:05;5.55;;;4.97;;
54388;SDS011;40975;50.390;8.640;2023-08-20T12:39:30;6.95;;;5.20;;
54388;SDS011;40975;50.390;8.640;2023-08-20T12:41:55;5.53;;;4.88;;
54388;SDS011;40975;50.390;8.640;2023-08-20T12:44:21;6.13;;;4.55;;
54388;SDS011;40975;50.390;8.640;2023-08-20T12:46:46;7.15;;;4.63;;
54388;SDS011;40975;50.390;8.640;2023-08-20T12:49:11;6.65;;;4.82;;
54388;SDS011;40975;50.390;8.640;2023-08-20T12:51:37;5.78;;;4.53;;
54388;SDS011;40975;50.390;8.640;2023-08-20T12:54:02;6.57;;;4.72;;
54388;SDS011;40975;50.390;8.640;2023-08-20T12:56:27;5.40;;;4.90;;
54388;SDS011;40975;50.390;8.640;2023-08-20T12:58:53;5.97;;;5.28;;
54388;SDS011;40975;50.390;8.640;2023-08-20T13:01:18;6.10;;;5.20;;
54388;SDS011;40975;50.390;8.640;2023-08-20T13:03:44;8.27;;;5.10;;
54388;SDS011;40975;50.390;8.640;2023-08-20T13:06:10;4.85;;;4.07;;
54388;SDS011;40975;50.390;8.640;2023-08-20T13:08:35;5.78;;;4.50;;
54388;SDS011;40975;50.390;8.640;2023-08-20T13:11:01;7.53;;;4.80;;
54388;SDS011;40975;50.390;8.640;2023-08-20T13:13:28;3.88;;;3.50;;
54388;SDS011;40975;50.390;8.640;2023-08-20T13:15:58;4.97;;;4.53;;
54388;SDS011;40975;50.390;8.640;2023-08-20T13:18:25;6.05;;;4.32;;
54388;SDS011;40975;50.390;8.640;2023-08-20T13:20:52;4.55;;;4.15;;
54388;SDS011;40975;50.390;8.640;2023-08-20T13:23:18;6.32;;;4.60;;
54388;SDS011;40975;50.390;8.640;2023-08-20T13:25:43;5.78;;;4.32;;
54388;SDS011;40975;50.390;8.640;2023-08-20T13:28:09;6.00;;;4.03;;
54388;SDS011;40975;50.390;8.640;2023-08-20T13:30:34;5.32;;;4.05;;
54388;SDS011;40975;50.390;8.640;2023-08-20T13:32:59;5.22;;;4.57;;
54388;SDS011;40975;50.390;8.640;2023-08-20T13:35:25;7.35;;;4.38;;
54388;SDS011;40975;50.390;8.640;2023-08-20T13:37:51;5.43;;;4.63;;
54388;SDS011;40975;50.390;8.640;2023-08-20T13:40:17;4.90;;;4.40;;
54388;SDS011;40975;50.390;8.640;2023-08-20T13:42:43;5.57;;;4.10;;
54388;SDS011;40975;50.390;8.640;2023-08-20T13:45:08;4.82;;;4.20;;
54388;SDS011;40975;50.390;8.640;2023-08-20T13:47:33;6.78;;;3.97;;
54388;SDS011;40975;50.390;8.640;2023-08-20T13:49:59;5.00;;;4.43;;
54388;SDS011;40975;50.390;8.640;2023-08-20T13:52:24;4.75;;;3.75;;
54388;SDS011;40975;50.390;8.640;2023-08-20T13:54:49;7.70;;;3.90;;
54388;SDS011;40975;50.390;8.640;2023-08-20T13:57:15;6.25;;;4.18;;
54388;SDS011;40975;50.390;8.640;2023-08-20T13:59:40;6.50;;;3.63;;
54388;SDS011;40975;50.390;8.640;2023-08-20T14:02:06;5.15;;;3.78;;
54388;SDS011;40975;50.390;8.640;2023-08-20T14:04:31;4.15;;;3.65;;
54388;SDS011;40975;50.390;8.640;2023-08-20T14:06:56;4.13;;;3.28;;
54388;SDS011;40975;50.390;8.640;2023-08-20T14:09:21;3.75;;;3.28;;
54388;SDS011;40975;50.390;8.640;2023-08-20T14:11:47;4.97;;;3.67;;
54388;SDS011;40975;50.390;8.640;2023-08-20T14:14:13;4.05;;;3.63;;
54388;SDS011;40975;50.390;8.640;2023-08-20T14:16:38;4.75;;;3.47;;
54388;SDS011;40975;50.390;8.640;2023-08-20T14:19:04;4.93;;;3.03;;
54388;SDS011;40975;50.390;8.640;2023-08-20T14:21:29;4.28;;;3.15;;
54388;SDS011;40975;50.390;8.640;2023-08-20T14:23:54;4.90;;;2.85;;
54388;SDS011;40975;50.390;8.640;2023-08-20T14:26:20;4.13;;;2.85;;
54388;SDS011;40975;50.390;8.640;2023-08-20T14:28:45;5.60;;;3.10;;
54388;SDS011;40975;50.390;8.640;2023-08-20T14:31:10;3.17;;;2.88;;
54388;SDS011;40975;50.390;8.640;2023-08-20T14:33:36;4.60;;;3.30;;
54388;SDS011;40975;50.390;8.640;2023-08-20T14:36:01;3.90;;;3.30;;
54388;SDS011;40975;50.390;8.640;2023-08-20T14:38:30;5.18;;;3.15;;
54388;SDS011;40975;50.390;8.640;2023-08-20T14:41:02;3.83;;;2.95;;
54388;SDS011;40975;50.390;8.640;2023-08-20T14:43:28;4.82;;;3.13;;
54388;SDS011;40975;50.390;8.640;2023-08-20T14:45:54;5.47;;;3.47;;
54388;SDS011;40975;50.390;8.640;2023-08-20T14:48:20;4.78;;;2.97;;
54388;SDS011;40975;50.390;8.640;2023-08-20T14:50:46;3.40;;;3.05;;
54388;SDS011;40975;50.390;8.640;2023-08-20T14:53:13;3.65;;;3.00;;
54388;SDS011;40975;50.390;8.640;2023-08-20T14:55:38;5.95;;;3.28;;
54388;SDS011;40975;50.390;8.640;2023-08-20T14:58:03;4.55;;;3.40;;